Time;durP1;ratioP1;P1;durP2;ratioP2;P2;SDS_P1;SDS_P2;PMS_P1;PMS_P2;Temp;Humidity;BMP_temperature;BMP_pressure;BME280_temperature;BME280_humidity;BME280_pressure;Samples;Min_cycle;Max_cycle;Signal;HPM_P1;HPM_P2
2021/03/22 00:02:40;;;;;;;9.18;7.63;;;;;;;;;;10359345;28;20039;-64
2021/03/22 00:07:39;;;;;;;9.38;8.38;;;;;;;;;;10358927;28;20078;-64
2021/03/22 00:12:37;;;;;;;9.57;7.80;;;;;;;;;;10350917;28;20075;-64
2021/03/22 00:17:39;;;;;;;12.40;8.38;;;;;;;;;;10356686;28;20072;-64
2021/03/22 00:22:36;;;;;;;9.40;7.63;;;;;;;;;;10358268;28;20087;-64
2021/03/22 00:27:35;;;;;;;7.70;6.80;;;;;;;;;;10358044;28;20087;-64
2021/03/22 00:32:32;;;;;;;10.43;7.75;;;;;;;;;;10358364;28;20085;-64
2021/03/22 00:37:29;;;;;;;8.45;7.40;;;;;;;;;;10354770;28;20177;-64
2021/03/22 00:42:27;;;;;;;7.20;6.43;;;;;;;;;;10357409;28;20536;-64
2021/03/22 00:47:25;;;;;;;8.27;7.35;;;;;;;;;;10357345;28;20072;-64
2021/03/22 00:52:22;;;;;;;8.52;6.45;;;;;;;;;;10357311;28;20489;-64
2021/03/22 00:57:20;;;;;;;8.43;6.65;;;;;;;;;;10357738;28;20513;-65
2021/03/22 01:02:17;;;;;;;8.27;5.57;;;;;;;;;;10357234;28;20048;-65
2021/03/22 01:07:15;;;;;;;6.20;5.60;;;;;;;;;;10354302;28;20076;-64
2021/03/22 01:12:13;;;;;;;7.15;6.45;;;;;;;;;;10356695;28;20040;-65
2021/03/22 01:17:10;;;;;;;7.53;6.82;;;;;;;;;;10355325;28;20076;-62
2021/03/22 01:22:07;;;;;;;7.15;6.03;;;;;;;;;;10356376;28;20039;-62
2021/03/22 01:27:07;;;;;;;7.03;6.07;;;;;;;;;;10356672;28;20106;-62
2021/03/22 01:32:05;;;;;;;7.30;6.60;;;;;;;;;;10356486;28;20086;-62
2021/03/22 01:37:03;;;;;;;7.30;6.60;;;;;;;;;;10356244;28;20067;-63
2021/03/22 01:42:06;;;;;;;8.55;6.93;;;;;;;;;;10354875;28;20051;-63
2021/03/22 01:47:06;;;;;;;8.57;7.50;;;;;;;;;;10355996;28;20087;-63
2021/03/22 01:52:05;;;;;;;7.55;6.82;;;;;;;;;;10362280;28;20072;-63
2021/03/22 01:57:22;;;;;;;9.20;7.03;;;;;;;;;;10361963;28;20543;-64
2021/03/22 02:02:21;;;;;;;8.82;7.40;;;;;;;;;;10364068;28;20044;-63
2021/03/22 02:07:19;;;;;;;8.15;7.18;;;;;;;;;;10363462;28;20083;-63
2021/03/22 02:12:17;;;;;;;9.02;7.63;;;;;;;;;;10363545;28;20504;-63
2021/03/22 02:17:16;;;;;;;7.93;7.13;;;;;;;;;;10363743;28;20048;-63
2021/03/22 02:22:35;;;;;;;11.18;7.15;;;;;;;;;;10363293;28;20510;-63
2021/03/22 02:27:48;;;;;;;8.95;7.10;;;;;;;;;;10361879;28;20075;-63
2021/03/22 02:33:16;;;;;;;7.75;6.88;;;;;;;;;;10360840;28;20056;-64
2021/03/22 02:38:17;;;;;;;8.98;7.05;;;;;;;;;;10361813;28;20051;-64
2021/03/22 02:43:14;;;;;;;6.65;5.85;;;;;;;;;;10362919;28;20051;-63
2021/03/22 02:48:16;;;;;;;7.43;6.57;;;;;;;;;;10362704;28;20079;-63
2021/03/22 02:53:23;;;;;;;6.90;5.82;;;;;;;;;;10362667;28;20040;-63
2021/03/22 02:58:22;;;;;;;16.73;10.50;;;;;;;;;;10361469;28;20522;-64
2021/03/22 03:03:20;;;;;;;11.00;8.10;;;;;;;;;;10359698;28;20430;-64
2021/03/22 03:08:21;;;;;;;11.18;7.93;;;;;;;;;;10359559;28;20075;-64
2021/03/22 03:13:19;;;;;;;8.45;7.25;;;;;;;;;;10361600;28;20043;-64
2021/03/22 03:18:16;;;;;;;7.97;7.15;;;;;;;;;;10361152;28;20067;-64
2021/03/22 03:23:14;;;;;;;7.90;7.07;;;;;;;;;;10361661;28;20076;-64
2021/03/22 03:28:12;;;;;;;7.40;6.55;;;;;;;;;;10357569;28;20070;-64
2021/03/22 03:33:11;;;;;;;9.75;8.75;;;;;;;;;;10360428;28;20032;-64
2021/03/22 03:38:08;;;;;;;9.70;8.60;;;;;;;;;;10360053;28;20466;-64
2021/03/22 03:43:06;;;;;;;9.82;8.63;;;;;;;;;;10359844;28;20473;-64
2021/03/22 03:48:05;;;;;;;8.50;7.55;;;;;;;;;;10359987;28;20076;-64
2021/03/22 03:53:02;;;;;;;9.57;8.65;;;;;;;;;;10360120;28;20055;-64
2021/03/22 03:58:00;;;;;;;8.18;7.38;;;;;;;;;;10359770;28;20044;-64
2021/03/22 04:02:57;;;;;;;8.52;7.65;;;;;;;;;;10359638;28;20044;-64
2021/03/22 04:07:55;;;;;;;7.45;6.53;;;;;;;;;;10353408;28;20068;-64
2021/03/22 04:12:53;;;;;;;9.95;8.88;;;;;;;;;;10349971;28;20090;-64
2021/03/22 04:17:50;;;;;;;13.30;11.23;;;;;;;;;;10354137;28;20490;-64
2021/03/22 04:22:47;;;;;;;8.25;7.45;;;;;;;;;;10351094;28;20072;-64
2021/03/22 04:27:46;;;;;;;11.45;7.90;;;;;;;;;;10348053;28;20086;-63
2021/03/22 04:32:43;;;;;;;11.73;9.68;;;;;;;;;;10358371;28;20517;-63
2021/03/22 04:37:41;;;;;;;18.92;14.95;;;;;;;;;;10356434;28;20519;-63
2021/03/22 04:42:38;;;;;;;19.23;15.57;;;;;;;;;;10346257;28;20063;-63
2021/03/22 04:47:36;;;;;;;31.17;24.98;;;;;;;;;;10344100;28;20075;-63
2021/03/22 04:52:34;;;;;;;24.55;17.67;;;;;;;;;;10355747;28;20477;-64
2021/03/22 04:57:32;;;;;;;15.50;13.40;;;;;;;;;;10355474;28;20067;-64
2021/03/22 05:02:30;;;;;;;18.38;12.18;;;;;;;;;;10356590;28;20040;-64
2021/03/22 05:07:29;;;;;;;17.15;13.35;;;;;;;;;;10354937;28;20086;-63
2021/03/22 05:12:27;;;;;;;13.38;12.00;;;;;;;;;;10356721;28;20079;-63
2021/03/22 05:17:24;;;;;;;11.68;8.88;;;;;;;;;;10354430;28;20497;-62
2021/03/22 05:22:21;;;;;;;15.82;10.25;;;;;;;;;;10356171;28;20091;-63
2021/03/22 05:27:20;;;;;;;12.73;11.13;;;;;;;;;;10356100;28;20063;-63
2021/03/22 05:32:28;;;;;;;11.75;10.40;;;;;;;;;;10352071;28;20099;-63
2021/03/22 05:37:25;;;;;;;19.48;14.80;;;;;;;;;;10352958;28;20557;-62
2021/03/22 05:42:41;;;;;;;13.23;11.18;;;;;;;;;;10356272;28;20083;-63
2021/03/22 05:47:45;;;;;;;10.45;9.43;;;;;;;;;;10354527;28;20071;-63
2021/03/22 05:52:53;;;;;;;11.45;10.10;;;;;;;;;;10355894;28;20094;-63
2021/03/22 05:58:03;;;;;;;13.93;11.90;;;;;;;;;;10353452;28;20070;-63
2021/03/22 06:03:04;;;;;;;13.10;11.70;;;;;;;;;;10354921;28;20055;-63
2021/03/22 06:08:04;;;;;;;12.50;9.93;;;;;;;;;;10352181;28;20071;-63
2021/03/22 06:13:03;;;;;;;9.85;8.85;;;;;;;;;;10335892;28;20064;-63
2021/03/22 06:18:02;;;;;;;14.38;12.90;;;;;;;;;;10338117;28;20067;-63
2021/03/22 06:23:02;;;;;;;14.05;11.13;;;;;;;;;;10350106;28;20072;-63
2021/03/22 06:28:03;;;;;;;16.50;13.55;;;;;;;;;;10333769;28;20504;-62
2021/03/22 06:33:01;;;;;;;15.40;12.93;;;;;;;;;;10346729;28;20060;-63
2021/03/22 06:37:59;;;;;;;10.90;9.75;;;;;;;;;;10341255;28;20521;-64
2021/03/22 06:43:02;;;;;;;12.25;10.13;;;;;;;;;;10360422;28;20075;-64
2021/03/22 06:48:17;;;;;;;12.40;10.80;;;;;;;;;;10352766;28;20075;-64
2021/03/22 06:53:31;;;;;;;10.63;9.48;;;;;;;;;;10362816;28;20063;-63
2021/03/22 06:58:29;;;;;;;10.55;9.10;;;;;;;;;;10360727;28;20469;-63
2021/03/22 07:03:27;;;;;;;11.90;9.90;;;;;;;;;;10360773;28;20082;-63
2021/03/22 07:08:38;;;;;;;10.43;9.23;;;;;;;;;;10358089;28;20072;-63
2021/03/22 07:13:36;;;;;;;11.80;10.55;;;;;;;;;;10356917;28;20560;-63
2021/03/22 07:18:34;;;;;;;11.65;9.98;;;;;;;;;;10359388;28;20068;-62
2021/03/22 07:23:39;;;;;;;13.13;11.02;;;;;;;;;;10361155;28;20075;-63
2021/03/22 07:28:42;;;;;;;26.10;15.97;;;;;;;;;;10360318;28;20461;-63
2021/03/22 07:33:47;;;;;;;23.65;19.13;;;;;;;;;;10360613;28;20318;-64
2021/03/22 07:38:48;;;;;;;20.35;14.05;;;;;;;;;;10360486;28;20485;-63
2021/03/22 07:43:51;;;;;;;18.67;15.30;;;;;;;;;;10358919;28;20070;-62
2021/03/22 07:48:58;;;;;;;47.45;24.88;;;;;;;;;;10361005;28;20064;-63
2021/03/22 07:53:57;;;;;;;22.02;16.75;;;;;;;;;;10360834;28;20048;-62
2021/03/22 07:59:08;;;;;;;16.67;14.32;;;;;;;;;;10360358;28;20036;-63
2021/03/22 08:04:33;;;;;;;20.02;15.93;;;;;;;;;;10358832;28;20075;-63
2021/03/22 08:09:42;;;;;;;37.53;28.33;;;;;;;;;;10359494;28;20071;-63
2021/03/22 08:14:42;;;;;;;28.33;20.38;;;;;;;;;;10358265;28;20072;-63
2021/03/22 08:19:42;;;;;;;19.55;17.20;;;;;;;;;;10358686;28;20051;-62
2021/03/22 08:24:45;;;;;;;35.88;27.02;;;;;;;;;;10358926;28;20322;-63
2021/03/22 08:29:46;;;;;;;20.52;18.30;;;;;;;;;;10358593;28;20082;-64
2021/03/22 08:34:47;;;;;;;21.70;17.30;;;;;;;;;;10358201;28;20509;-62
2021/03/22 08:39:47;;;;;;;26.27;18.17;;;;;;;;;;10358599;28;20474;-63
2021/03/22 08:44:47;;;;;;;28.27;20.63;;;;;;;;;;10358201;28;20090;-63
2021/03/22 08:49:49;;;;;;;26.98;23.50;;;;;;;;;;10355097;28;20083;-63
2021/03/22 08:54:46;;;;;;;33.78;26.08;;;;;;;;;;10355675;28;20067;-62
2021/03/22 08:59:44;;;;;;;27.40;20.10;;;;;;;;;;10357163;28;20106;-62
2021/03/22 09:04:41;;;;;;;27.67;22.63;;;;;;;;;;10357429;28;20513;-63
2021/03/22 09:09:41;;;;;;;24.77;19.48;;;;;;;;;;10357282;28;20068;-63
2021/03/22 09:14:42;;;;;;;27.55;20.00;;;;;;;;;;10357484;28;20398;-63
2021/03/22 09:19:42;;;;;;;25.52;19.25;;;;;;;;;;10357530;28;20071;-63
2021/03/22 09:24:51;;;;;;;29.55;21.23;;;;;;;;;;10355026;28;20417;-63
2021/03/22 09:29:49;;;;;;;25.70;21.13;;;;;;;;;;10356335;28;20498;-62
2021/03/22 09:34:46;;;;;;;23.00;18.15;;;;;;;;;;10354276;28;20040;-62
2021/03/22 09:39:47;;;;;;;35.40;25.33;;;;;;;;;;10353750;28;20075;-61
2021/03/22 09:45:10;;;;;;;37.65;24.75;;;;;;;;;;10356583;28;20079;-59
2021/03/22 09:50:28;;;;;;;32.42;23.23;;;;;;;;;;10354397;28;20079;-62
2021/03/22 09:55:44;;;;;;;32.90;19.95;;;;;;;;;;10352906;28;20084;-62
2021/03/22 10:00:50;;;;;;;38.38;25.63;;;;;;;;;;10355728;28;20044;-60
2021/03/22 10:05:56;;;;;;;34.70;25.25;;;;;;;;;;10356877;28;20047;-62
2021/03/22 10:10:55;;;;;;;18.40;15.15;;;;;;;;;;10359414;28;20070;-62
2021/03/22 10:15:54;;;;;;;26.58;18.80;;;;;;;;;;10360945;28;20493;-62
2021/03/22 10:21:00;;;;;;;27.38;22.83;;;;;;;;;;10361844;28;20051;-62
2021/03/22 10:26:02;;;;;;;38.83;31.23;;;;;;;;;;10362322;28;20075;-62
2021/03/22 10:31:02;;;;;;;26.85;22.73;;;;;;;;;;10361574;28;20145;-62
2021/03/22 10:36:00;;;;;;;34.40;25.42;;;;;;;;;;10362417;28;20083;-62
2021/03/22 10:40:58;;;;;;;25.40;18.33;;;;;;;;;;10361181;28;20044;-61
2021/03/22 10:45:57;;;;;;;24.65;17.23;;;;;;;;;;10359500;28;20044;-61
2021/03/22 10:51:08;;;;;;;24.10;19.13;;;;;;;;;;10360392;28;20063;-62
2021/03/22 10:56:18;;;;;;;18.90;15.30;;;;;;;;;;10361375;28;20067;-64
2021/03/22 11:01:18;;;;;;;22.15;18.13;;;;;;;;;;10362461;28;20413;-62
2021/03/22 11:06:24;;;;;;;25.17;20.35;;;;;;;;;;10362266;28;20075;-61
2021/03/22 11:11:21;;;;;;;35.70;28.30;;;;;;;;;;10359989;28;20059;-61
2021/03/22 11:16:21;;;;;;;47.58;33.67;;;;;;;;;;10359531;28;20413;-62
2021/03/22 11:21:20;;;;;;;29.98;23.50;;;;;;;;;;10360218;28;20033;-61
2021/03/22 11:26:21;;;;;;;29.90;24.35;;;;;;;;;;10361707;28;20105;-61
2021/03/22 11:31:23;;;;;;;27.75;21.88;;;;;;;;;;10360640;28;20536;-61
2021/03/22 11:36:29;;;;;;;20.15;16.48;;;;;;;;;;10359357;28;20059;-61
2021/03/22 11:41:28;;;;;;;14.05;12.30;;;;;;;;;;10359322;28;20052;-61
2021/03/22 11:46:27;;;;;;;20.27;15.20;;;;;;;;;;10358721;28;20626;-61
2021/03/22 11:51:24;;;;;;;25.45;20.05;;;;;;;;;;10357310;28;20079;-61
2021/03/22 11:56:32;;;;;;;36.17;24.27;;;;;;;;;;10359023;28;20406;-62
2021/03/22 12:01:30;;;;;;;34.63;21.85;;;;;;;;;;10360337;28;20063;-63
2021/03/22 12:06:33;;;;;;;28.17;20.90;;;;;;;;;;10358320;28;20068;-63
2021/03/22 12:11:31;;;;;;;25.52;18.63;;;;;;;;;;10359840;28;20083;-62
2021/03/22 12:16:29;;;;;;;21.65;17.20;;;;;;;;;;10357612;28;20047;-62
2021/03/22 12:21:27;;;;;;;29.17;21.25;;;;;;;;;;10357596;28;20075;-62
2021/03/22 12:26:25;;;;;;;18.55;15.50;;;;;;;;;;10358288;28;20075;-61
2021/03/22 12:31:23;;;;;;;23.98;17.40;;;;;;;;;;10355954;28;20048;-63
2021/03/22 12:36:21;;;;;;;41.40;31.42;;;;;;;;;;10358941;28;20082;-62
2021/03/22 12:41:21;;;;;;;100.43;59.88;;;;;;;;;;10357823;28;20063;-62
2021/03/22 12:46:19;;;;;;;65.93;47.85;;;;;;;;;;10358622;28;20178;-62
2021/03/22 12:51:16;;;;;;;54.00;38.50;;;;;;;;;;10358587;28;20071;-63
2021/03/22 12:56:15;;;;;;;44.28;29.08;;;;;;;;;;10357200;28;20067;-62
2021/03/22 13:01:15;;;;;;;43.53;30.23;;;;;;;;;;10355650;28;20072;-62
2021/03/22 13:06:12;;;;;;;45.70;31.02;;;;;;;;;;10354886;28;20441;-62
2021/03/22 13:11:11;;;;;;;31.73;25.08;;;;;;;;;;10358915;28;20429;-63
2021/03/22 13:16:09;;;;;;;47.00;32.72;;;;;;;;;;10358409;28;20504;-62
2021/03/22 13:21:08;;;;;;;34.30;23.45;;;;;;;;;;10358654;28;20047;-62
2021/03/22 13:26:06;;;;;;;34.50;23.85;;;;;;;;;;10358463;28;20047;-62
2021/03/22 13:31:04;;;;;;;49.17;31.67;;;;;;;;;;10358183;28;20076;-62
2021/03/22 13:36:01;;;;;;;31.38;25.20;;;;;;;;;;10358413;28;20066;-62
2021/03/22 13:41:00;;;;;;;221.32;197.40;;;;;;;;;;10357747;28;20048;-62
2021/03/22 13:45:58;;;;;;;70.85;45.63;;;;;;;;;;10364170;28;20071;-63
2021/03/22 13:50:58;;;;;;;40.38;27.67;;;;;;;;;;10366374;28;20465;-62
2021/03/22 13:55:55;;;;;;;84.70;54.20;;;;;;;;;;10366384;28;20051;-61
2021/03/22 14:00:53;;;;;;;62.63;48.05;;;;;;;;;;10364952;28;20044;-62
2021/03/22 14:05:56;;;;;;;58.05;42.63;;;;;;;;;;10365844;28;20036;-62
2021/03/22 14:10:54;;;;;;;64.13;45.03;;;;;;;;;;10365437;28;20075;-62
2021/03/22 14:15:51;;;;;;;106.00;68.78;;;;;;;;;;10363170;28;20075;-63
2021/03/22 14:20:50;;;;;;;98.53;60.90;;;;;;;;;;10365155;28;20075;-62
2021/03/22 14:25:48;;;;;;;55.13;39.05;;;;;;;;;;10364737;28;20425;-63
2021/03/22 14:30:45;;;;;;;91.22;57.30;;;;;;;;;;10364958;28;20090;-63
2021/03/22 14:35:43;;;;;;;97.78;53.90;;;;;;;;;;10363574;28;20036;-63
2021/03/22 14:40:41;;;;;;;74.50;50.20;;;;;;;;;;10364673;28;20040;-62
2021/03/22 14:45:39;;;;;;;51.47;31.77;;;;;;;;;;10364003;28;20480;-62
2021/03/22 14:50:36;;;;;;;125.70;71.97;;;;;;;;;;10362783;28;20086;-62
2021/03/22 14:55:33;;;;;;;133.43;78.97;;;;;;;;;;10362931;28;20071;-63
2021/03/22 15:00:33;;;;;;;72.00;51.95;;;;;;;;;;10363605;28;20063;-62
2021/03/22 15:05:31;;;;;;;103.25;73.60;;;;;;;;;;10362814;28;20040;-62
2021/03/22 15:10:30;;;;;;;88.93;62.97;;;;;;;;;;10362919;28;20497;-61
2021/03/22 15:15:28;;;;;;;111.18;75.70;;;;;;;;;;10363011;28;20162;-62
2021/03/22 15:20:31;;;;;;;144.35;87.82;;;;;;;;;;10360625;28;20048;-62
2021/03/22 15:25:30;;;;;;;127.20;84.40;;;;;;;;;;10360812;28;20273;-62
2021/03/22 15:30:27;;;;;;;99.40;66.97;;;;;;;;;;10360187;28;20094;-62
2021/03/22 15:35:25;;;;;;;84.40;58.08;;;;;;;;;;10362079;28;20441;-63
2021/03/22 15:40:23;;;;;;;62.10;47.20;;;;;;;;;;10360969;28;20066;-61
2021/03/22 15:45:23;;;;;;;179.45;115.85;;;;;;;;;;10362204;28;20040;-63
2021/03/22 15:50:22;;;;;;;138.93;96.90;;;;;;;;;;10361605;28;20497;-62
2021/03/22 15:55:20;;;;;;;133.63;84.07;;;;;;;;;;10360445;28;20076;-62
2021/03/22 16:00:20;;;;;;;165.77;101.57;;;;;;;;;;10361166;28;20044;-61
2021/03/22 16:05:19;;;;;;;132.60;79.57;;;;;;;;;;10356469;28;20482;-62
2021/03/22 16:10:17;;;;;;;149.48;88.03;;;;;;;;;;10360254;28;20076;-62
2021/03/22 16:15:16;;;;;;;152.48;83.25;;;;;;;;;;10360721;28;20042;-62
2021/03/22 16:20:15;;;;;;;115.05;62.47;;;;;;;;;;10360315;28;20077;-62
2021/03/22 16:25:16;;;;;;;54.42;34.35;;;;;;;;;;10359850;28;20062;-62
2021/03/22 16:30:16;;;;;;;53.33;37.95;;;;;;;;;;10359608;28;20084;-62
2021/03/22 16:35:18;;;;;;;168.35;65.97;;;;;;;;;;10359701;28;20059;-62
2021/03/22 16:40:15;;;;;;;46.95;29.42;;;;;;;;;;10359633;28;20051;-61
2021/03/22 16:45:15;;;;;;;48.05;32.65;;;;;;;;;;10359678;28;20051;-60
2021/03/22 16:50:13;;;;;;;45.22;32.15;;;;;;;;;;10357134;28;20078;-61
2021/03/22 16:55:13;;;;;;;83.68;52.90;;;;;;;;;;10358823;28;20047;-60
2021/03/22 17:00:11;;;;;;;121.75;64.15;;;;;;;;;;10351169;28;20082;-59
2021/03/22 17:05:09;;;;;;;94.38;61.03;;;;;;;;;;10334615;28;20068;-61
2021/03/22 17:10:07;;;;;;;119.65;71.25;;;;;;;;;;10343948;28;20082;-60
2021/03/22 17:15:06;;;;;;;60.50;41.65;;;;;;;;;;10358085;28;20088;-60
2021/03/22 17:20:05;;;;;;;49.30;33.88;;;;;;;;;;10357329;28;20073;-59
2021/03/22 17:25:03;;;;;;;59.22;40.08;;;;;;;;;;10353834;28;20090;-60
2021/03/22 17:30:00;;;;;;;53.08;34.05;;;;;;;;;;10347844;28;20071;-59
2021/03/22 17:34:58;;;;;;;61.45;42.45;;;;;;;;;;10347322;28;20464;-61
2021/03/22 17:39:56;;;;;;;87.75;55.72;;;;;;;;;;10357660;28;20040;-61
2021/03/22 17:44:53;;;;;;;177.55;103.00;;;;;;;;;;10357264;28;20473;-61
2021/03/22 17:49:50;;;;;;;88.13;60.88;;;;;;;;;;10357359;28;20071;-60
2021/03/22 17:54:49;;;;;;;74.43;51.55;;;;;;;;;;10357237;28;20047;-62
2021/03/22 17:59:46;;;;;;;138.55;98.38;;;;;;;;;;10355311;28;20469;-61
2021/03/22 18:04:45;;;;;;;83.35;59.92;;;;;;;;;;10356660;28;20044;-61
2021/03/22 18:09:42;;;;;;;93.18;64.78;;;;;;;;;;10356771;28;20103;-61
2021/03/22 18:14:40;;;;;;;83.70;45.95;;;;;;;;;;10356573;28;20051;-62
2021/03/22 18:19:38;;;;;;;69.85;45.08;;;;;;;;;;10339667;28;20052;-60
2021/03/22 18:24:36;;;;;;;84.43;56.85;;;;;;;;;;10356295;28;20052;-60
2021/03/22 18:29:34;;;;;;;63.13;42.25;;;;;;;;;;10356603;28;20087;-62
2021/03/22 18:34:34;;;;;;;140.05;104.38;;;;;;;;;;10361686;28;20446;-62
2021/03/22 18:39:31;;;;;;;63.67;42.67;;;;;;;;;;10361438;28;20067;-61
2021/03/22 18:44:29;;;;;;;72.93;52.33;;;;;;;;;;10363265;28;20497;-61
2021/03/22 18:49:26;;;;;;;174.32;91.47;;;;;;;;;;10363200;28;20079;-60
2021/03/22 18:54:24;;;;;;;95.53;59.83;;;;;;;;;;10349835;28;20068;-61
2021/03/22 18:59:22;;;;;;;99.57;60.33;;;;;;;;;;10356379;28;20040;-60
2021/03/22 19:04:19;;;;;;;95.20;57.72;;;;;;;;;;10362440;28;20044;-62
2021/03/22 19:09:17;;;;;;;78.80;44.72;;;;;;;;;;10360909;28;20056;-61
2021/03/22 19:14:15;;;;;;;90.40;58.42;;;;;;;;;;10361938;28;20044;-61
2021/03/22 19:19:12;;;;;;;65.50;37.30;;;;;;;;;;10361861;28;20044;-62
2021/03/22 19:24:10;;;;;;;96.18;52.22;;;;;;;;;;10362100;28;20056;-63
2021/03/22 19:29:12;;;;;;;100.07;62.75;;;;;;;;;;10361088;28;20095;-60
2021/03/22 19:34:11;;;;;;;107.30;59.15;;;;;;;;;;10343559;28;20075;-59
2021/03/22 19:39:08;;;;;;;106.07;72.43;;;;;;;;;;10337277;28;20067;-59
2021/03/22 19:44:06;;;;;;;87.55;43.65;;;;;;;;;;10340555;28;20064;-61
2021/03/22 19:49:03;;;;;;;52.08;31.65;;;;;;;;;;10342565;28;20072;-61
2021/03/22 19:54:05;;;;;;;93.22;40.35;;;;;;;;;;10333873;28;20726;-60
2021/03/22 19:59:03;;;;;;;75.25;43.28;;;;;;;;;;10342780;28;20087;-60
2021/03/22 20:04:04;;;;;;;67.82;34.97;;;;;;;;;;10342113;28;20076;-60
2021/03/22 20:09:02;;;;;;;69.30;40.70;;;;;;;;;;10351904;28;20086;-60
2021/03/22 20:14:00;;;;;;;87.32;45.28;;;;;;;;;;10355981;28;20076;-60
2021/03/22 20:18:57;;;;;;;73.28;45.53;;;;;;;;;;10344196;28;20075;-61
2021/03/22 20:23:54;;;;;;;91.47;52.58;;;;;;;;;;10359636;28;20501;-61
2021/03/22 20:28:54;;;;;;;71.82;45.47;;;;;;;;;;10358919;28;20079;-61
2021/03/22 20:34:12;;;;;;;113.95;64.57;;;;;;;;;;10359204;28;20044;-62
2021/03/22 20:39:11;;;;;;;111.88;66.90;;;;;;;;;;10357597;28;20051;-61
2021/03/22 20:44:10;;;;;;;76.65;46.33;;;;;;;;;;10359407;28;20071;-61
2021/03/22 20:49:08;;;;;;;106.30;56.22;;;;;;;;;;10354404;28;20083;-61
2021/03/22 20:54:05;;;;;;;78.85;50.00;;;;;;;;;;10345010;28;20075;-61
2021/03/22 20:59:04;;;;;;;80.30;48.33;;;;;;;;;;10358252;28;20048;-62
2021/03/22 21:04:02;;;;;;;83.15;50.75;;;;;;;;;;10353348;28;20075;-63
2021/03/22 21:09:00;;;;;;;84.97;53.50;;;;;;;;;;10344766;28;20087;-61
2021/03/22 21:13:57;;;;;;;77.30;47.53;;;;;;;;;;10357777;28;20071;-61
2021/03/22 21:18:54;;;;;;;77.13;52.33;;;;;;;;;;10357464;28;20410;-62
2021/03/22 21:23:53;;;;;;;95.63;64.28;;;;;;;;;;10357329;28;20072;-62
2021/03/22 21:28:50;;;;;;;103.68;60.30;;;;;;;;;;10352494;28;20526;-63
2021/03/22 21:34:05;;;;;;;76.68;43.45;;;;;;;;;;10347245;28;20294;-62
2021/03/22 21:39:04;;;;;;;87.47;48.42;;;;;;;;;;10357089;28;20040;-62
2021/03/22 21:44:01;;;;;;;72.82;45.30;;;;;;;;;;10357193;28;20047;-61
2021/03/22 21:48:58;;;;;;;43.58;28.95;;;;;;;;;;10349238;28;20462;-62
2021/03/22 21:53:56;;;;;;;50.15;29.52;;;;;;;;;;10356818;28;20501;-62
2021/03/22 21:58:55;;;;;;;43.03;31.45;;;;;;;;;;10347645;28;20079;-62
2021/03/22 22:03:52;;;;;;;29.08;24.08;;;;;;;;;;10358291;28;20076;-62
2021/03/22 22:08:49;;;;;;;48.38;36.30;;;;;;;;;;10364967;28;20087;-61
2021/03/22 22:13:46;;;;;;;29.45;21.90;;;;;;;;;;10350051;28;20071;-62
2021/03/22 22:18:44;;;;;;;33.85;28.10;;;;;;;;;;10332608;28;20075;-60
2021/03/22 22:23:42;;;;;;;64.75;43.38;;;;;;;;;;10327418;28;20075;-61
2021/03/22 22:28:39;;;;;;;31.25;23.63;;;;;;;;;;10342098;28;20079;-62
2021/03/22 22:33:36;;;;;;;32.83;22.85;;;;;;;;;;10362635;28;20704;-61
2021/03/22 22:38:35;;;;;;;50.10;32.40;;;;;;;;;;10349439;28;20509;-60
2021/03/22 22:43:32;;;;;;;44.20;35.47;;;;;;;;;;10346270;28;20528;-60
2021/03/22 22:48:32;;;;;;;62.35;34.80;;;;;;;;;;10334648;28;20083;-60
2021/03/22 22:53:29;;;;;;;55.28;33.95;;;;;;;;;;10336655;28;20072;-61
2021/03/22 22:58:28;;;;;;;102.45;49.50;;;;;;;;;;10327760;28;20056;-62
2021/03/22 23:03:26;;;;;;;52.95;30.20;;;;;;;;;;10323443;28;20067;-62
2021/03/22 23:08:26;;;;;;;39.25;28.40;;;;;;;;;;10351131;28;20072;-61
2021/03/22 23:13:24;;;;;;;47.85;35.25;;;;;;;;;;10329782;28;20469;-60
2021/03/22 23:18:23;;;;;;;42.53;31.13;;;;;;;;;;10336240;28;20478;-62
2021/03/22 23:23:22;;;;;;;35.17;25.38;;;;;;;;;;10320080;28;20049;-61
2021/03/22 23:28:20;;;;;;;23.67;20.08;;;;;;;;;;10331492;28;20088;-62
2021/03/22 23:33:19;;;;;;;28.48;20.98;;;;;;;;;;10331002;28;20072;-62
2021/03/22 23:38:17;;;;;;;50.03;31.38;;;;;;;;;;10320430;28;20076;-61
2021/03/22 23:43:15;;;;;;;27.70;20.67;;;;;;;;;;10320245;28;20049;-61
2021/03/22 23:48:12;;;;;;;49.78;28.75;;;;;;;;;;10320192;28;20048;-62
2021/03/22 23:53:10;;;;;;;29.83;21.10;;;;;;;;;;10320375;28;20451;-61
2021/03/22 23:58:13;;;;;;;25.02;17.77;;;;;;;;;;10320204;28;20055;-62
